createdAt,value
2023-01-20T00:00:02.919Z,-1.08
2023-01-20T00:05:02.762Z,-1.36
2023-01-20T00:10:02.583Z,-1.17
2023-01-20T00:15:02.873Z,-1.14
2023-01-20T00:20:02.627Z,-1.38
2023-01-20T00:25:02.309Z,-1.59
2023-01-20T00:30:03.093Z,-1.38
2023-01-20T00:35:03.187Z,-1.17
2023-01-20T00:40:02.836Z,-1.01
2023-01-20T00:45:02.589Z,-1.03
2023-01-20T00:50:02.602Z,-1.14
2023-01-20T00:55:02.751Z,-1.14
2023-01-20T01:00:03.024Z,-1.06
2023-01-20T01:05:02.713Z,-0.97
2023-01-20T01:10:02.481Z,-0.98
2023-01-20T01:15:02.265Z,-1
2023-01-20T01:20:03.117Z,-0.96
2023-01-20T01:25:02.927Z,-0.86
2023-01-20T01:30:02.570Z,-0.72
2023-01-20T01:35:02.382Z,-0.78
2023-01-20T01:40:02.331Z,-0.87
2023-01-20T01:45:03.135Z,-0.94
2023-01-20T01:50:02.800Z,-0.96
2023-01-20T01:55:03.159Z,-0.86
2023-01-20T02:00:02.315Z,-0.84
2023-01-20T02:05:03.025Z,-0.83
2023-01-20T02:10:02.832Z,-1
2023-01-20T02:15:03.253Z,-1.08
2023-01-20T02:20:02.434Z,-1.22
2023-01-20T02:25:03.182Z,-1.37
2023-01-20T02:30:03.036Z,-1.54
2023-01-20T02:35:02.854Z,-1.66
2023-01-20T02:40:02.765Z,-1.84
2023-01-20T02:45:02.567Z,-2.03
2023-01-20T02:50:02.379Z,-2.12
2023-01-20T02:55:02.814Z,-1.92
2023-01-20T03:00:03.059Z,-1.91
2023-01-20T03:05:02.671Z,-1.73
2023-01-20T03:10:03.066Z,-1.64
2023-01-20T03:15:02.565Z,-1.57
2023-01-20T03:20:02.421Z,-1.57
2023-01-20T03:25:02.366Z,-1.49
2023-01-20T03:30:03.067Z,-1.42
2023-01-20T03:35:02.832Z,-1.35
2023-01-20T03:40:02.635Z,-1.27
2023-01-20T03:45:02.844Z,-1.35
2023-01-20T03:50:02.685Z,-1.19
2023-01-20T03:55:03.032Z,-1.17
2023-01-20T04:00:02.463Z,-1.29
2023-01-20T04:05:02.321Z,-1.55
2023-01-20T04:10:03.291Z,-1.7
2023-01-20T04:15:02.893Z,-1.84
2023-01-20T04:20:02.747Z,-1.77
2023-01-20T04:25:02.618Z,-1.89
2023-01-20T04:30:02.411Z,-1.87
2023-01-20T04:35:03.063Z,-2
2023-01-20T04:40:03.025Z,-2.32
2023-01-20T04:45:03.102Z,-2.43
2023-01-20T04:50:02.487Z,-2.12
2023-01-20T04:55:03.748Z,-2.03
2023-01-20T05:00:03.006Z,-2.11
2023-01-20T05:05:02.686Z,-2
2023-01-20T05:10:02.381Z,-1.9
2023-01-20T05:15:02.336Z,-1.97
2023-01-20T05:20:03.098Z,-2.06
2023-01-20T05:25:02.995Z,-2.27
2023-01-20T05:30:02.350Z,-2.31
2023-01-20T05:35:02.235Z,-2.25
2023-01-20T05:40:02.226Z,-2.28
2023-01-20T05:45:03.202Z,-2.22
2023-01-20T05:50:03.233Z,-2.07
2023-01-20T05:55:04.155Z,-2.01
2023-01-20T06:00:02.965Z,-1.96
2023-01-20T06:05:02.743Z,-1.96
2023-01-20T06:10:02.590Z,-1.86
2023-01-20T06:15:02.438Z,-1.78
2023-01-20T06:20:02.622Z,-1.78
2023-01-20T06:25:02.397Z,-1.42
2023-01-20T06:30:02.513Z,-1.41
2023-01-20T06:35:03.103Z,-1.43
2023-01-20T06:40:02.817Z,-1.42
2023-01-20T06:45:02.582Z,-1.46
2023-01-20T06:50:02.381Z,-1.46
2023-01-20T06:55:03.582Z,-1.36
2023-01-20T07:00:02.871Z,-1.25
2023-01-20T07:05:02.748Z,-1.33
2023-01-20T07:10:02.429Z,-1.31
2023-01-20T07:15:02.681Z,-1.3
2023-01-20T07:20:02.903Z,-1.4
2023-01-20T07:25:02.686Z,-1.48
2023-01-20T07:30:02.498Z,-1.46
2023-01-20T07:35:02.369Z,-1.53
2023-01-20T07:40:03.187Z,-1.51
2023-01-20T07:45:02.991Z,-1.4
2023-01-20T07:50:02.795Z,-1.28
2023-01-20T07:55:03.236Z,-1.23
2023-01-20T08:00:03.081Z,-1.13
2023-01-20T08:05:02.753Z,-1.15
2023-01-20T08:10:02.708Z,-1.05
2023-01-20T08:15:02.651Z,-0.82
2023-01-20T08:20:02.740Z,-0.69
2023-01-20T08:25:02.671Z,-0.57
2023-01-20T08:30:02.619Z,-0.43
2023-01-20T08:35:02.360Z,-0.45
2023-01-20T08:40:03.158Z,-0.46
2023-01-20T08:45:03.211Z,-0.44
2023-01-20T08:50:02.822Z,-0.54
2023-01-20T08:55:03.710Z,-0.43
2023-01-20T09:00:03.020Z,-0.33
2023-01-20T09:05:02.747Z,-0.31
2023-01-20T09:10:02.460Z,-0.05
2023-01-20T09:15:04.985Z,0.12
2023-01-20T09:20:03.039Z,0.17
2023-01-20T09:25:03.019Z,0.15
2023-01-20T09:30:02.872Z,0.46
2023-01-20T09:35:02.499Z,0.26
2023-01-20T09:40:02.409Z,0.24
2023-01-20T09:45:03.097Z,0.25
2023-01-20T09:50:02.479Z,0.18
2023-01-20T09:55:03.321Z,0.15
2023-01-20T10:00:02.690Z,0.09
2023-01-20T10:05:02.554Z,0.13
2023-01-20T10:10:02.203Z,0.34
2023-01-20T10:15:02.921Z,0.45
2023-01-20T10:20:02.740Z,0.48
2023-01-20T10:25:02.713Z,0.69
2023-01-20T10:30:02.309Z,0.76
2023-01-20T10:35:03.335Z,0.77
2023-01-20T10:40:02.955Z,0.81
2023-01-20T10:45:02.972Z,1.07
2023-01-20T10:50:02.719Z,1.23
2023-01-20T10:55:03.043Z,1.28
2023-01-20T11:00:02.265Z,1.07
2023-01-20T11:05:03.258Z,1.15
2023-01-20T11:10:02.879Z,1.33
2023-01-20T11:15:03.039Z,1.52
2023-01-20T11:20:02.924Z,1.46
2023-01-20T11:25:02.795Z,1.47
2023-01-20T11:30:02.788Z,1.42
2023-01-20T11:35:02.369Z,1.62
2023-01-20T11:40:02.478Z,1.64
2023-01-20T11:45:20.086Z,1.58
2023-01-20T11:50:02.536Z,1.66
2023-01-20T11:55:03.476Z,1.54
2023-01-20T12:00:02.392Z,1.64
2023-01-20T12:05:03.123Z,1.72
2023-01-20T12:10:03.007Z,1.71
2023-01-20T12:15:03.050Z,1.75
2023-01-20T12:20:02.994Z,1.67
2023-01-20T12:25:02.446Z,1.64
2023-01-20T12:30:03.190Z,1.63
2023-01-20T12:35:02.983Z,1.68
2023-01-20T12:40:02.616Z,1.72
2023-01-20T12:45:02.321Z,1.96
2023-01-20T12:50:03.092Z,2.02
2023-01-20T12:55:03.589Z,1.9
2023-01-20T13:00:03.199Z,1.77
2023-01-20T13:05:02.645Z,1.75
2023-01-20T13:10:02.402Z,1.62
2023-01-20T13:15:03.178Z,1.37
2023-01-20T13:20:03.147Z,1.42
2023-01-20T13:25:03.209Z,1.42
2023-01-20T13:30:03.521Z,1.49
2023-01-20T13:35:03.261Z,1.42
2023-01-20T13:40:02.860Z,1.29
2023-01-20T13:45:02.730Z,1.26
2023-01-20T13:50:02.550Z,1.3
2023-01-20T13:55:02.750Z,1.28
2023-01-20T14:00:02.400Z,1.34
2023-01-20T14:05:02.326Z,1.3
2023-01-20T14:10:02.455Z,1.19
2023-01-20T14:15:03.465Z,1.21
2023-01-20T14:20:03.060Z,1.27
2023-01-20T14:25:02.924Z,1.28
2023-01-20T14:30:02.834Z,1.15
2023-01-20T14:35:02.509Z,1.05
2023-01-20T14:40:02.351Z,0.86
2023-01-20T14:45:02.492Z,0.66
2023-01-20T14:50:03.246Z,0.33
2023-01-20T14:55:03.748Z,0.11
2023-01-20T15:00:02.639Z,0.11
2023-01-20T15:05:02.263Z,-0.08
2023-01-20T15:10:02.999Z,-0.26
2023-01-20T15:15:02.996Z,-0.55
2023-01-20T15:20:02.743Z,-0.57
2023-01-20T15:25:02.590Z,-0.83
2023-01-20T15:30:02.424Z,-1.26
2023-01-20T15:35:03.121Z,-1.42
2023-01-20T15:40:03.118Z,-0.55
2023-01-20T15:45:02.650Z,-0.44
2023-01-20T15:50:02.653Z,-1.05
2023-01-20T15:55:02.803Z,-1.15
2023-01-20T16:00:03.260Z,-0.83
2023-01-20T16:05:02.790Z,-0.57
2023-01-20T16:10:02.536Z,-0.5
2023-01-20T16:15:02.336Z,-0.52
2023-01-20T16:20:03.172Z,-0.95
2023-01-20T16:25:02.870Z,-1.39
2023-01-20T16:30:02.712Z,-1.48
2023-01-20T16:35:02.568Z,-1.63
2023-01-20T16:40:02.368Z,-1.67
2023-01-20T16:45:02.303Z,-1.5
2023-01-20T16:50:02.861Z,-1.25
2023-01-20T16:55:03.431Z,-1.13
2023-01-20T17:00:02.451Z,-0.89
2023-01-20T17:05:03.123Z,-0.95
2023-01-20T17:10:02.877Z,-1
2023-01-20T17:15:02.656Z,-1.15
2023-01-20T17:20:02.415Z,-1.09
2023-01-20T17:25:03.098Z,-1.35
2023-01-20T17:30:02.886Z,-1.38
2023-01-20T17:35:02.927Z,-1.22
2023-01-20T17:40:02.637Z,-1.25
2023-01-20T17:45:02.546Z,-1.6
2023-01-20T17:50:02.297Z,-1.64
2023-01-20T17:55:03.772Z,-1.84
2023-01-20T18:00:03.209Z,-1.98
2023-01-20T18:05:02.876Z,-1.84
2023-01-20T18:10:02.569Z,-1.8
2023-01-20T18:15:02.380Z,-1.9
2023-01-20T18:20:03.110Z,-2.34
2023-01-20T18:25:02.333Z,-2.81
2023-01-20T18:30:03.157Z,-2.82
2023-01-20T18:35:02.876Z,-2.88
2023-01-20T18:40:02.870Z,-2.96
2023-01-20T18:45:02.680Z,-2.53
2023-01-20T18:50:02.587Z,-2.83
2023-01-20T18:55:03.024Z,-3.04
2023-01-20T19:00:03.157Z,-2.91
2023-01-20T19:05:02.830Z,-3.2
2023-01-20T19:10:02.634Z,-3.42
2023-01-20T19:15:02.567Z,-3.33
2023-01-20T19:20:02.753Z,-3.48
2023-01-20T19:25:02.540Z,-3.21
2023-01-20T19:30:02.271Z,-3.37
2023-01-20T19:35:02.201Z,-3.38
2023-01-20T19:40:03.758Z,-2.82
2023-01-20T19:45:03.160Z,-3.13
2023-01-20T19:50:02.741Z,-3.46
2023-01-20T19:55:02.921Z,-3.67
2023-01-20T20:00:03.168Z,-3.74
2023-01-20T20:05:02.827Z,-3.64
2023-01-20T20:10:02.819Z,-3.39
2023-01-20T20:15:02.444Z,-3.26
2023-01-20T20:20:02.302Z,-3.16
2023-01-20T20:25:02.425Z,-3.15
2023-01-20T20:30:02.325Z,-3.04
2023-01-20T20:35:03.036Z,-2.94
2023-01-20T20:40:02.867Z,-2.78
2023-01-20T20:45:02.620Z,-2.74
2023-01-20T20:50:02.261Z,-2.47
2023-01-20T20:55:04.062Z,-2.34
2023-01-20T21:00:02.936Z,-2.12
2023-01-20T21:05:02.662Z,-1.88
2023-01-20T21:10:02.435Z,-1.83
2023-01-20T21:15:02.609Z,-1.81
2023-01-20T21:20:02.239Z,-1.72
2023-01-20T21:25:03.113Z,-1.7
2023-01-20T21:30:03.052Z,-1.68
2023-01-20T21:35:02.672Z,-1.55
2023-01-20T21:40:02.510Z,-1.49
2023-01-20T21:45:02.322Z,-1.42
2023-01-20T21:50:02.943Z,-1.35
2023-01-20T21:55:05.906Z,-1.27
2023-01-20T22:00:02.476Z,-1.2
2023-01-20T22:05:03.429Z,-1.18
2023-01-20T22:10:02.829Z,-1.22
2023-01-20T22:15:02.815Z,-1.22
2023-01-20T22:20:02.536Z,-1.25
2023-01-20T22:25:02.451Z,-1.38
2023-01-20T22:30:02.444Z,-1.43
2023-01-20T22:35:02.243Z,-1.5
2023-01-20T22:40:03.058Z,-1.57
2023-01-20T22:45:02.703Z,-1.62
2023-01-20T22:50:02.368Z,-1.67
2023-01-20T22:55:03.557Z,-1.75
2023-01-20T23:00:02.753Z,-1.82
2023-01-20T23:05:02.808Z,-1.88
2023-01-20T23:10:02.551Z,-1.89
2023-01-20T23:15:02.411Z,-2
2023-01-20T23:20:02.241Z,-2.08
2023-01-20T23:25:02.942Z,-2.09
2023-01-20T23:30:02.712Z,-2.11
2023-01-20T23:35:02.591Z,-2.11
2023-01-20T23:40:02.295Z,-2.07
2023-01-20T23:45:02.353Z,-2.06
2023-01-20T23:50:02.332Z,-2.04
2023-01-20T23:55:03.323Z,-2.06
